sensor_id;sensor_type;location;lat;lon;timestamp;temperature;humidity
4962;DHT22;2496;52.468;13.342;2022-09-02T00:02:01;15.20;99.90
4962;DHT22;2496;52.468;13.342;2022-09-02T00:04:28;15.20;99.90
4962;DHT22;2496;52.468;13.342;2022-09-02T00:06:56;15.10;99.90
4962;DHT22;2496;52.468;13.342;2022-09-02T00:09:24;15.10;99.90
4962;DHT22;2496;52.468;13.342;2022-09-02T00:11:52;15.10;99.90
4962;DHT22;2496;52.468;13.342;2022-09-02T00:14:24;15.00;99.90
4962;DHT22;2496;52.468;13.342;2022-09-02T00:16:52;15.10;99.90
4962;DHT22;2496;52.468;13.342;2022-09-02T00:19:21;15.10;99.90
4962;DHT22;2496;52.468;13.342;2022-09-02T00:21:49;15.10;99.90
4962;DHT22;2496;52.468;13.342;2022-09-02T00:24:17;15.10;99.90
4962;DHT22;2496;52.468;13.342;2022-09-02T00:26:44;15.10;99.90
4962;DHT22;2496;52.468;13.342;2022-09-02T00:29:12;15.10;99.90
4962;DHT22;2496;52.468;13.342;2022-09-02T00:31:40;15.10;99.90
4962;DHT22;2496;52.468;13.342;2022-09-02T00:34:09;15.10;99.90
4962;DHT22;2496;52.468;13.342;2022-09-02T00:36:36;15.10;99.90
4962;DHT22;2496;52.468;13.342;2022-09-02T00:39:05;15.10;99.90
4962;DHT22;2496;52.468;13.342;2022-09-02T00:41:34;15.10;99.90
4962;DHT22;2496;52.468;13.342;2022-09-02T00:44:05;15.10;99.90
4962;DHT22;2496;52.468;13.342;2022-09-02T00:46:34;15.10;99.90
4962;DHT22;2496;52.468;13.342;2022-09-02T00:49:05;15.10;99.90
4962;DHT22;2496;52.468;13.342;2022-09-02T00:51:38;15.10;99.90
4962;DHT22;2496;52.468;13.342;2022-09-02T00:54:06;15.10;99.90
4962;DHT22;2496;52.468;13.342;2022-09-02T00:56:36;15.10;99.90
4962;DHT22;2496;52.468;13.342;2022-09-02T00:59:04;15.10;99.90
4962;DHT22;2496;52.468;13.342;2022-09-02T01:01:31;15.10;99.90
4962;DHT22;2496;52.468;13.342;2022-09-02T01:03:58;15.00;99.90
4962;DHT22;2496;52.468;13.342;2022-09-02T01:06:27;15.00;99.90
4962;DHT22;2496;52.468;13.342;2022-09-02T01:09:02;15.00;99.90
4962;DHT22;2496;52.468;13.342;2022-09-02T01:11:36;15.00;99.90
4962;DHT22;2496;52.468;13.342;2022-09-02T01:14:04;15.10;99.90
4962;DHT22;2496;52.468;13.342;2022-09-02T01:16:35;15.00;99.90
4962;DHT22;2496;52.468;13.342;2022-09-02T01:19:09;15.00;99.90
4962;DHT22;2496;52.468;13.342;2022-09-02T01:21:44;15.00;99.90
4962;DHT22;2496;52.468;13.342;2022-09-02T01:24:11;15.00;99.90
4962;DHT22;2496;52.468;13.342;2022-09-02T01:26:41;15.00;99.90
4962;DHT22;2496;52.468;13.342;2022-09-02T01:29:08;15.00;99.90
4962;DHT22;2496;52.468;13.342;2022-09-02T01:31:36;14.90;99.90
4962;DHT22;2496;52.468;13.342;2022-09-02T01:34:03;14.90;99.90
4962;DHT22;2496;52.468;13.342;2022-09-02T01:36:31;14.90;99.90
4962;DHT22;2496;52.468;13.342;2022-09-02T01:38:59;14.90;99.90
4962;DHT22;2496;52.468;13.342;2022-09-02T01:41:26;14.90;99.90
4962;DHT22;2496;52.468;13.342;2022-09-02T01:43:53;14.80;99.90
4962;DHT22;2496;52.468;13.342;2022-09-02T01:46:20;14.80;99.90
4962;DHT22;2496;52.468;13.342;2022-09-02T01:48:48;14.80;99.90
4962;DHT22;2496;52.468;13.342;2022-09-02T01:51:16;14.80;99.90
4962;DHT22;2496;52.468;13.342;2022-09-02T01:53:44;14.80;99.90
4962;DHT22;2496;52.468;13.342;2022-09-02T01:56:12;14.80;99.90
4962;DHT22;2496;52.468;13.342;2022-09-02T01:58:40;14.80;99.90
4962;DHT22;2496;52.468;13.342;2022-09-02T02:01:07;14.80;99.90
4962;DHT22;2496;52.468;13.342;2022-09-02T02:03:35;14.70;99.90
4962;DHT22;2496;52.468;13.342;2022-09-02T02:06:07;14.70;99.90
4962;DHT22;2496;52.468;13.342;2022-09-02T02:08:34;14.70;99.90
4962;DHT22;2496;52.468;13.342;2022-09-02T02:11:01;14.70;99.90
4962;DHT22;2496;52.468;13.342;2022-09-02T02:13:29;14.70;99.90
4962;DHT22;2496;52.468;13.342;2022-09-02T02:15:56;14.60;99.90
4962;DHT22;2496;52.468;13.342;2022-09-02T02:18:23;14.60;99.90
4962;DHT22;2496;52.468;13.342;2022-09-02T02:20:50;14.60;99.90
4962;DHT22;2496;52.468;13.342;2022-09-02T02:23:18;14.50;99.90
4962;DHT22;2496;52.468;13.342;2022-09-02T02:25:47;14.50;99.90
4962;DHT22;2496;52.468;13.342;2022-09-02T02:28:13;14.40;99.90
4962;DHT22;2496;52.468;13.342;2022-09-02T02:30:42;14.50;99.90
4962;DHT22;2496;52.468;13.342;2022-09-02T02:33:09;14.40;99.90
4962;DHT22;2496;52.468;13.342;2022-09-02T02:35:36;14.40;99.90
4962;DHT22;2496;52.468;13.342;2022-09-02T02:38:03;14.40;99.90
4962;DHT22;2496;52.468;13.342;2022-09-02T02:40:30;14.40;99.90
4962;DHT22;2496;52.468;13.342;2022-09-02T02:42:57;14.40;99.90
4962;DHT22;2496;52.468;13.342;2022-09-02T02:45:24;14.40;99.90
4962;DHT22;2496;52.468;13.342;2022-09-02T02:47:53;14.40;99.90
4962;DHT22;2496;52.468;13.342;2022-09-02T02:50:21;14.40;99.90
4962;DHT22;2496;52.468;13.342;2022-09-02T02:52:48;14.30;99.90
4962;DHT22;2496;52.468;13.342;2022-09-02T02:55:16;14.30;99.90
4962;DHT22;2496;52.468;13.342;2022-09-02T02:57:44;14.30;99.90
4962;DHT22;2496;52.468;13.342;2022-09-02T03:00:13;14.30;99.90
4962;DHT22;2496;52.468;13.342;2022-09-02T03:02:40;14.20;99.90
4962;DHT22;2496;52.468;13.342;2022-09-02T03:05:10;14.20;99.90
4962;DHT22;2496;52.468;13.342;2022-09-02T03:07:38;14.20;99.90
4962;DHT22;2496;52.468;13.342;2022-09-02T03:10:06;14.20;99.90
4962;DHT22;2496;52.468;13.342;2022-09-02T03:12:34;14.20;99.90
4962;DHT22;2496;52.468;13.342;2022-09-02T03:15:01;14.20;99.90
4962;DHT22;2496;52.468;13.342;2022-09-02T03:17:28;14.10;99.90
4962;DHT22;2496;52.468;13.342;2022-09-02T03:19:55;14.10;99.90
4962;DHT22;2496;52.468;13.342;2022-09-02T03:22:25;14.10;99.90
4962;DHT22;2496;52.468;13.342;2022-09-02T03:24:53;14.10;99.90
4962;DHT22;2496;52.468;13.342;2022-09-02T03:27:20;14.10;99.90
4962;DHT22;2496;52.468;13.342;2022-09-02T03:29:47;14.10;99.90
4962;DHT22;2496;52.468;13.342;2022-09-02T03:32:14;14.00;99.90
4962;DHT22;2496;52.468;13.342;2022-09-02T03:34:41;14.00;99.90
4962;DHT22;2496;52.468;13.342;2022-09-02T03:37:08;14.00;99.90
4962;DHT22;2496;52.468;13.342;2022-09-02T03:39:36;13.90;99.90
4962;DHT22;2496;52.468;13.342;2022-09-02T03:42:05;13.90;99.90
4962;DHT22;2496;52.468;13.342;2022-09-02T03:44:32;13.90;99.90
4962;DHT22;2496;52.468;13.342;2022-09-02T03:46:59;13.90;99.90
4962;DHT22;2496;52.468;13.342;2022-09-02T03:49:27;13.90;99.90
4962;DHT22;2496;52.468;13.342;2022-09-02T03:51:54;13.90;99.90
4962;DHT22;2496;52.468;13.342;2022-09-02T03:54:21;13.80;99.90
4962;DHT22;2496;52.468;13.342;2022-09-02T03:56:49;13.80;99.90
4962;DHT22;2496;52.468;13.342;2022-09-02T03:59:17;13.80;99.90
4962;DHT22;2496;52.468;13.342;2022-09-02T04:01:44;13.80;99.90
4962;DHT22;2496;52.468;13.342;2022-09-02T04:04:11;13.80;99.90
4962;DHT22;2496;52.468;13.342;2022-09-02T04:06:39;13.80;99.90
4962;DHT22;2496;52.468;13.342;2022-09-02T04:09:06;13.80;99.90
4962;DHT22;2496;52.468;13.342;2022-09-02T04:11:33;13.80;99.90
4962;DHT22;2496;52.468;13.342;2022-09-02T04:14:03;13.80;99.90
4962;DHT22;2496;52.468;13.342;2022-09-02T04:16:30;13.70;99.90
4962;DHT22;2496;52.468;13.342;2022-09-02T04:18:58;13.70;99.90
4962;DHT22;2496;52.468;13.342;2022-09-02T04:21:26;13.70;99.90
4962;DHT22;2496;52.468;13.342;2022-09-02T04:23:54;13.80;99.90
4962;DHT22;2496;52.468;13.342;2022-09-02T04:26:22;13.80;99.90
4962;DHT22;2496;52.468;13.342;2022-09-02T04:28:49;13.70;99.90
4962;DHT22;2496;52.468;13.342;2022-09-02T04:31:20;13.70;99.90
4962;DHT22;2496;52.468;13.342;2022-09-02T04:33:47;13.70;99.90
4962;DHT22;2496;52.468;13.342;2022-09-02T04:36:15;13.70;99.90
4962;DHT22;2496;52.468;13.342;2022-09-02T04:38:43;13.70;99.90
4962;DHT22;2496;52.468;13.342;2022-09-02T04:41:12;13.70;99.90
4962;DHT22;2496;52.468;13.342;2022-09-02T04:43:39;13.70;99.90
4962;DHT22;2496;52.468;13.342;2022-09-02T04:46:08;13.70;99.90
4962;DHT22;2496;52.468;13.342;2022-09-02T04:48:37;13.70;99.90
4962;DHT22;2496;52.468;13.342;2022-09-02T04:51:06;13.70;99.90
4962;DHT22;2496;52.468;13.342;2022-09-02T04:53:34;13.70;99.90
4962;DHT22;2496;52.468;13.342;2022-09-02T04:56:02;13.70;99.90
4962;DHT22;2496;52.468;13.342;2022-09-02T04:58:33;13.70;99.90
4962;DHT22;2496;52.468;13.342;2022-09-02T05:01:05;13.70;99.90
4962;DHT22;2496;52.468;13.342;2022-09-02T05:03:32;13.70;99.90
4962;DHT22;2496;52.468;13.342;2022-09-02T05:06:02;13.70;99.90
4962;DHT22;2496;52.468;13.342;2022-09-02T05:08:29;13.80;99.90
4962;DHT22;2496;52.468;13.342;2022-09-02T05:10:56;13.70;99.90
4962;DHT22;2496;52.468;13.342;2022-09-02T05:13:24;13.70;99.90
4962;DHT22;2496;52.468;13.342;2022-09-02T05:15:51;13.80;99.90
4962;DHT22;2496;52.468;13.342;2022-09-02T05:18:19;13.80;99.90
4962;DHT22;2496;52.468;13.342;2022-09-02T05:20:46;13.80;99.90
4962;DHT22;2496;52.468;13.342;2022-09-02T05:23:14;13.80;99.90
4962;DHT22;2496;52.468;13.342;2022-09-02T05:25:41;13.80;99.90
4962;DHT22;2496;52.468;13.342;2022-09-02T05:28:08;13.90;99.90
4962;DHT22;2496;52.468;13.342;2022-09-02T05:30:36;13.90;99.90
4962;DHT22;2496;52.468;13.342;2022-09-02T05:33:09;14.00;99.90
4962;DHT22;2496;52.468;13.342;2022-09-02T05:35:39;14.00;99.90
4962;DHT22;2496;52.468;13.342;2022-09-02T05:38:06;14.00;99.90
4962;DHT22;2496;52.468;13.342;2022-09-02T05:40:35;14.00;99.90
4962;DHT22;2496;52.468;13.342;2022-09-02T05:43:02;13.90;99.90
4962;DHT22;2496;52.468;13.342;2022-09-02T05:45:29;14.00;99.90
4962;DHT22;2496;52.468;13.342;2022-09-02T05:47:56;14.00;99.90
4962;DHT22;2496;52.468;13.342;2022-09-02T05:50:23;14.00;99.90
4962;DHT22;2496;52.468;13.342;2022-09-02T05:52:50;14.10;99.90
4962;DHT22;2496;52.468;13.342;2022-09-02T05:55:17;14.00;99.90
4962;DHT22;2496;52.468;13.342;2022-09-02T05:57:45;14.00;99.90
4962;DHT22;2496;52.468;13.342;2022-09-02T06:00:13;14.00;99.90
4962;DHT22;2496;52.468;13.342;2022-09-02T06:02:41;14.10;99.90
4962;DHT22;2496;52.468;13.342;2022-09-02T06:05:08;14.10;99.90
4962;DHT22;2496;52.468;13.342;2022-09-02T06:07:36;14.10;99.90
4962;DHT22;2496;52.468;13.342;2022-09-02T06:10:04;14.20;99.90
4962;DHT22;2496;52.468;13.342;2022-09-02T06:12:31;14.20;99.90
4962;DHT22;2496;52.468;13.342;2022-09-02T06:15:00;14.30;99.90
4962;DHT22;2496;52.468;13.342;2022-09-02T06:17:27;14.30;99.90
4962;DHT22;2496;52.468;13.342;2022-09-02T06:19:54;14.30;99.90
4962;DHT22;2496;52.468;13.342;2022-09-02T06:22:21;14.30;99.90
4962;DHT22;2496;52.468;13.342;2022-09-02T06:24:48;14.30;99.90
4962;DHT22;2496;52.468;13.342;2022-09-02T06:27:17;14.40;99.90
4962;DHT22;2496;52.468;13.342;2022-09-02T06:32:13;14.70;99.90
4962;DHT22;2496;52.468;13.342;2022-09-02T06:34:40;14.80;99.90
4962;DHT22;2496;52.468;13.342;2022-09-02T06:37:07;14.70;99.90
4962;DHT22;2496;52.468;13.342;2022-09-02T06:39:34;14.80;99.90
4962;DHT22;2496;52.468;13.342;2022-09-02T06:42:03;14.80;99.90
4962;DHT22;2496;52.468;13.342;2022-09-02T06:44:29;14.80;99.90
4962;DHT22;2496;52.468;13.342;2022-09-02T06:46:57;14.80;99.90
4962;DHT22;2496;52.468;13.342;2022-09-02T06:49:27;14.80;99.90
4962;DHT22;2496;52.468;13.342;2022-09-02T06:51:54;14.80;99.90
4962;DHT22;2496;52.468;13.342;2022-09-02T06:54:22;14.80;99.90
4962;DHT22;2496;52.468;13.342;2022-09-02T06:56:50;14.80;99.90
4962;DHT22;2496;52.468;13.342;2022-09-02T06:59:17;14.90;99.90
4962;DHT22;2496;52.468;13.342;2022-09-02T07:01:45;15.00;99.90
4962;DHT22;2496;52.468;13.342;2022-09-02T07:04:13;15.00;99.90
4962;DHT22;2496;52.468;13.342;2022-09-02T07:06:59;15.10;99.90
4962;DHT22;2496;52.468;13.342;2022-09-02T07:09:27;15.20;99.90
4962;DHT22;2496;52.468;13.342;2022-09-02T07:11:57;15.50;99.90
4962;DHT22;2496;52.468;13.342;2022-09-02T07:14:25;15.60;99.90
4962;DHT22;2496;52.468;13.342;2022-09-02T07:16:54;15.70;99.90
4962;DHT22;2496;52.468;13.342;2022-09-02T07:19:23;15.90;99.90
4962;DHT22;2496;52.468;13.342;2022-09-02T07:21:50;16.00;99.90
4962;DHT22;2496;52.468;13.342;2022-09-02T07:24:19;16.00;99.90
4962;DHT22;2496;52.468;13.342;2022-09-02T07:26:47;16.20;99.90
4962;DHT22;2496;52.468;13.342;2022-09-02T07:29:14;16.40;99.90
4962;DHT22;2496;52.468;13.342;2022-09-02T07:31:43;16.50;99.90
4962;DHT22;2496;52.468;13.342;2022-09-02T07:34:11;16.30;99.90
4962;DHT22;2496;52.468;13.342;2022-09-02T07:36:39;16.30;99.90
4962;DHT22;2496;52.468;13.342;2022-09-02T07:39:07;16.30;99.90
4962;DHT22;2496;52.468;13.342;2022-09-02T07:41:37;16.30;99.90
4962;DHT22;2496;52.468;13.342;2022-09-02T07:44:05;16.50;99.90
4962;DHT22;2496;52.468;13.342;2022-09-02T07:46:36;16.70;99.90
4962;DHT22;2496;52.468;13.342;2022-09-02T07:49:05;16.90;99.90
4962;DHT22;2496;52.468;13.342;2022-09-02T07:51:34;17.10;99.90
4962;DHT22;2496;52.468;13.342;2022-09-02T07:54:02;17.30;99.90
4962;DHT22;2496;52.468;13.342;2022-09-02T07:56:30;17.40;99.90
4962;DHT22;2496;52.468;13.342;2022-09-02T07:58:59;17.70;99.90
4962;DHT22;2496;52.468;13.342;2022-09-02T08:01:26;18.00;99.90
4962;DHT22;2496;52.468;13.342;2022-09-02T08:03:53;18.40;99.90
4962;DHT22;2496;52.468;13.342;2022-09-02T08:06:20;18.70;99.90
4962;DHT22;2496;52.468;13.342;2022-09-02T08:08:51;19.00;99.90
4962;DHT22;2496;52.468;13.342;2022-09-02T08:11:18;19.20;99.90
4962;DHT22;2496;52.468;13.342;2022-09-02T08:13:46;19.50;99.90
4962;DHT22;2496;52.468;13.342;2022-09-02T08:16:15;20.00;99.90
4962;DHT22;2496;52.468;13.342;2022-09-02T08:18:42;20.10;99.90
4962;DHT22;2496;52.468;13.342;2022-09-02T08:21:09;20.20;99.90
4962;DHT22;2496;52.468;13.342;2022-09-02T08:23:37;20.30;99.90
4962;DHT22;2496;52.468;13.342;2022-09-02T08:26:05;20.30;99.90
4962;DHT22;2496;52.468;13.342;2022-09-02T08:28:33;20.50;99.80
4962;DHT22;2496;52.468;13.342;2022-09-02T08:31:03;20.90;98.60
4962;DHT22;2496;52.468;13.342;2022-09-02T08:33:32;21.10;98.50
4962;DHT22;2496;52.468;13.342;2022-09-02T08:36:02;21.10;97.80
4962;DHT22;2496;52.468;13.342;2022-09-02T08:38:29;21.10;98.60
4962;DHT22;2496;52.468;13.342;2022-09-02T08:40:55;21.30;98.20
4962;DHT22;2496;52.468;13.342;2022-09-02T08:43:27;21.60;97.50
4962;DHT22;2496;52.468;13.342;2022-09-02T08:45:58;21.70;97.20
4962;DHT22;2496;52.468;13.342;2022-09-02T08:48:35;21.80;97.50
4962;DHT22;2496;52.468;13.342;2022-09-02T08:51:06;21.90;97.70
4962;DHT22;2496;52.468;13.342;2022-09-02T08:53:37;22.10;96.70
4962;DHT22;2496;52.468;13.342;2022-09-02T08:56:09;21.90;97.00
4962;DHT22;2496;52.468;13.342;2022-09-02T08:58:40;22.10;97.00
4962;DHT22;2496;52.468;13.342;2022-09-02T09:01:12;21.80;96.80
4962;DHT22;2496;52.468;13.342;2022-09-02T09:04:04;21.60;97.40
4962;DHT22;2496;52.468;13.342;2022-09-02T09:06:40;21.40;97.00
4962;DHT22;2496;52.468;13.342;2022-09-02T09:09:14;21.40;96.80
4962;DHT22;2496;52.468;13.342;2022-09-02T09:11:48;21.40;96.60
4962;DHT22;2496;52.468;13.342;2022-09-02T09:14:21;21.50;96.70
4962;DHT22;2496;52.468;13.342;2022-09-02T09:16:57;21.60;96.60
4962;DHT22;2496;52.468;13.342;2022-09-02T09:19:35;21.80;96.60
4962;DHT22;2496;52.468;13.342;2022-09-02T09:22:03;22.20;96.00
4962;DHT22;2496;52.468;13.342;2022-09-02T09:24:35;22.30;95.20
4962;DHT22;2496;52.468;13.342;2022-09-02T09:27:06;22.20;95.50
4962;DHT22;2496;52.468;13.342;2022-09-02T09:29:33;22.30;94.60
4962;DHT22;2496;52.468;13.342;2022-09-02T09:32:02;22.40;95.30
4962;DHT22;2496;52.468;13.342;2022-09-02T09:34:56;22.30;93.20
4962;DHT22;2496;52.468;13.342;2022-09-02T09:37:31;22.30;92.80
4962;DHT22;2496;52.468;13.342;2022-09-02T09:39:59;22.20;93.30
4962;DHT22;2496;52.468;13.342;2022-09-02T09:42:32;22.10;92.50
4962;DHT22;2496;52.468;13.342;2022-09-02T09:44:59;21.60;92.70
4962;DHT22;2496;52.468;13.342;2022-09-02T09:47:37;21.50;92.90
4962;DHT22;2496;52.468;13.342;2022-09-02T09:50:15;21.10;92.10
4962;DHT22;2496;52.468;13.342;2022-09-02T09:52:43;20.80;92.40
4962;DHT22;2496;52.468;13.342;2022-09-02T09:55:16;20.60;93.20
4962;DHT22;2496;52.468;13.342;2022-09-02T09:57:45;20.70;93.20
4962;DHT22;2496;52.468;13.342;2022-09-02T10:00:19;20.70;92.90
4962;DHT22;2496;52.468;13.342;2022-09-02T10:02:48;20.60;93.70
4962;DHT22;2496;52.468;13.342;2022-09-02T10:05:26;20.70;93.90
4962;DHT22;2496;52.468;13.342;2022-09-02T10:07:55;20.80;93.70
4962;DHT22;2496;52.468;13.342;2022-09-02T10:10:24;20.90;93.20
4962;DHT22;2496;52.468;13.342;2022-09-02T10:12:53;20.90;92.70
4962;DHT22;2496;52.468;13.342;2022-09-02T10:15:28;20.90;93.10
4962;DHT22;2496;52.468;13.342;2022-09-02T10:18:00;20.80;93.30
4962;DHT22;2496;52.468;13.342;2022-09-02T10:20:42;20.60;93.50
4962;DHT22;2496;52.468;13.342;2022-09-02T10:23:23;20.60;93.50
4962;DHT22;2496;52.468;13.342;2022-09-02T10:26:02;20.40;93.90
4962;DHT22;2496;52.468;13.342;2022-09-02T10:31:30;20.40;94.00
4962;DHT22;2496;52.468;13.342;2022-09-02T10:34:09;20.40;93.10
4962;DHT22;2496;52.468;13.342;2022-09-02T10:37:01;20.50;92.60
4962;DHT22;2496;52.468;13.342;2022-09-02T10:39:46;20.50;92.70
4962;DHT22;2496;52.468;13.342;2022-09-02T10:42:18;20.50;92.60
4962;DHT22;2496;52.468;13.342;2022-09-02T10:45:05;20.40;92.30
4962;DHT22;2496;52.468;13.342;2022-09-02T10:47:35;20.20;92.80
4962;DHT22;2496;52.468;13.342;2022-09-02T10:50:10;20.20;92.80
4962;DHT22;2496;52.468;13.342;2022-09-02T10:53:04;20.20;92.90
4962;DHT22;2496;52.468;13.342;2022-09-02T10:55:38;20.10;92.90
4962;DHT22;2496;52.468;13.342;2022-09-02T10:58:16;20.10;93.40
4962;DHT22;2496;52.468;13.342;2022-09-02T11:00:47;20.10;93.40
4962;DHT22;2496;52.468;13.342;2022-09-02T11:03:20;20.30;93.30
4962;DHT22;2496;52.468;13.342;2022-09-02T11:05:52;20.40;92.90
4962;DHT22;2496;52.468;13.342;2022-09-02T11:08:30;20.60;91.90
4962;DHT22;2496;52.468;13.342;2022-09-02T11:11:04;20.60;90.20
4962;DHT22;2496;52.468;13.342;2022-09-02T11:13:36;20.80;91.10
4962;DHT22;2496;52.468;13.342;2022-09-02T11:16:07;20.80;90.70
4962;DHT22;2496;52.468;13.342;2022-09-02T11:18:44;20.80;91.70
4962;DHT22;2496;52.468;13.342;2022-09-02T11:21:24;20.90;91.00
4962;DHT22;2496;52.468;13.342;2022-09-02T11:23:59;20.90;89.50
4962;DHT22;2496;52.468;13.342;2022-09-02T11:26:32;20.80;89.30
4962;DHT22;2496;52.468;13.342;2022-09-02T11:29:05;20.70;87.80
4962;DHT22;2496;52.468;13.342;2022-09-02T11:31:39;20.60;89.50
4962;DHT22;2496;52.468;13.342;2022-09-02T11:34:16;20.50;90.60
4962;DHT22;2496;52.468;13.342;2022-09-02T11:36:45;20.40;90.90
4962;DHT22;2496;52.468;13.342;2022-09-02T11:39:18;20.30;90.60
4962;DHT22;2496;52.468;13.342;2022-09-02T11:42:06;20.30;91.20
4962;DHT22;2496;52.468;13.342;2022-09-02T11:44:50;20.10;91.50
4962;DHT22;2496;52.468;13.342;2022-09-02T11:47:44;20.10;92.10
4962;DHT22;2496;52.468;13.342;2022-09-02T11:50:45;20.10;92.20
4962;DHT22;2496;52.468;13.342;2022-09-02T11:53:20;20.10;92.20
4962;DHT22;2496;52.468;13.342;2022-09-02T11:55:54;20.10;90.30
4962;DHT22;2496;52.468;13.342;2022-09-02T11:58:33;20.10;90.50
4962;DHT22;2496;52.468;13.342;2022-09-02T12:03:51;20.40;90.20
4962;DHT22;2496;52.468;13.342;2022-09-02T12:06:20;20.60;89.80
4962;DHT22;2496;52.468;13.342;2022-09-02T12:09:08;20.70;88.90
4962;DHT22;2496;52.468;13.342;2022-09-02T12:11:45;20.90;88.30
4962;DHT22;2496;52.468;13.342;2022-09-02T12:21:11;21.00;90.30
4962;DHT22;2496;52.468;13.342;2022-09-02T12:27:07;20.70;90.30
4962;DHT22;2496;52.468;13.342;2022-09-02T12:29:34;20.60;90.90
4962;DHT22;2496;52.468;13.342;2022-09-02T12:32:02;20.50;90.90
4962;DHT22;2496;52.468;13.342;2022-09-02T12:34:53;20.40;91.00
4962;DHT22;2496;52.468;13.342;2022-09-02T12:37:49;20.40;90.90
4962;DHT22;2496;52.468;13.342;2022-09-02T12:40:26;20.60;90.70
4962;DHT22;2496;52.468;13.342;2022-09-02T12:42:58;20.70;90.70
4962;DHT22;2496;52.468;13.342;2022-09-02T12:45:30;20.90;90.30
4962;DHT22;2496;52.468;13.342;2022-09-02T12:48:00;21.00;90.20
4962;DHT22;2496;52.468;13.342;2022-09-02T12:50:29;21.00;88.80
4962;DHT22;2496;52.468;13.342;2022-09-02T12:53:26;21.10;88.40
4962;DHT22;2496;52.468;13.342;2022-09-02T12:55:58;21.00;87.60
4962;DHT22;2496;52.468;13.342;2022-09-02T12:58:31;21.00;87.90
4962;DHT22;2496;52.468;13.342;2022-09-02T13:01:17;21.00;87.80
4962;DHT22;2496;52.468;13.342;2022-09-02T13:06:49;20.80;88.80
4962;DHT22;2496;52.468;13.342;2022-09-02T13:12:58;20.60;89.40
4962;DHT22;2496;52.468;13.342;2022-09-02T13:21:47;20.90;87.30
4962;DHT22;2496;52.468;13.342;2022-09-02T13:27:43;20.90;86.90
4962;DHT22;2496;52.468;13.342;2022-09-02T13:30:19;20.90;87.60
4962;DHT22;2496;52.468;13.342;2022-09-02T13:33:00;20.80;87.70
4962;DHT22;2496;52.468;13.342;2022-09-02T13:35:31;20.80;87.70
4962;DHT22;2496;52.468;13.342;2022-09-02T13:38:00;20.60;88.20
4962;DHT22;2496;52.468;13.342;2022-09-02T13:40:29;20.50;88.30
4962;DHT22;2496;52.468;13.342;2022-09-02T13:42:59;20.50;89.10
4962;DHT22;2496;52.468;13.342;2022-09-02T13:45:28;20.50;88.90
4962;DHT22;2496;52.468;13.342;2022-09-02T13:47:59;20.50;88.70
4962;DHT22;2496;52.468;13.342;2022-09-02T13:50:30;20.50;87.90
4962;DHT22;2496;52.468;13.342;2022-09-02T13:53:01;20.50;88.60
4962;DHT22;2496;52.468;13.342;2022-09-02T13:55:30;20.70;88.10
4962;DHT22;2496;52.468;13.342;2022-09-02T13:57:59;20.80;88.50
4962;DHT22;2496;52.468;13.342;2022-09-02T14:00:31;20.90;87.50
4962;DHT22;2496;52.468;13.342;2022-09-02T14:03:03;21.00;86.60
4962;DHT22;2496;52.468;13.342;2022-09-02T14:05:35;21.00;86.40
4962;DHT22;2496;52.468;13.342;2022-09-02T14:08:05;21.10;87.20
4962;DHT22;2496;52.468;13.342;2022-09-02T14:10:34;21.30;87.20
4962;DHT22;2496;52.468;13.342;2022-09-02T14:13:03;21.40;86.60
4962;DHT22;2496;52.468;13.342;2022-09-02T14:15:33;21.40;86.30
4962;DHT22;2496;52.468;13.342;2022-09-02T14:18:12;21.30;87.20
4962;DHT22;2496;52.468;13.342;2022-09-02T14:20:55;21.10;86.90
4962;DHT22;2496;52.468;13.342;2022-09-02T14:23:23;20.90;86.40
4962;DHT22;2496;52.468;13.342;2022-09-02T14:25:52;20.80;86.80
4962;DHT22;2496;52.468;13.342;2022-09-02T14:28:21;21.00;86.00
4962;DHT22;2496;52.468;13.342;2022-09-02T14:31:00;21.10;83.90
4962;DHT22;2496;52.468;13.342;2022-09-02T14:33:41;21.00;82.10
4962;DHT22;2496;52.468;13.342;2022-09-02T14:36:28;21.00;85.20
4962;DHT22;2496;52.468;13.342;2022-09-02T14:39:09;21.10;85.50
4962;DHT22;2496;52.468;13.342;2022-09-02T14:41:43;21.10;84.80
4962;DHT22;2496;52.468;13.342;2022-09-02T14:44:14;21.20;83.90
4962;DHT22;2496;52.468;13.342;2022-09-02T14:46:44;21.10;84.20
4962;DHT22;2496;52.468;13.342;2022-09-02T14:49:19;21.10;84.70
4962;DHT22;2496;52.468;13.342;2022-09-02T14:51:48;21.00;84.20
4962;DHT22;2496;52.468;13.342;2022-09-02T14:54:34;20.90;84.90
4962;DHT22;2496;52.468;13.342;2022-09-02T14:57:02;20.80;86.10
4962;DHT22;2496;52.468;13.342;2022-09-02T14:59:29;20.80;85.10
4962;DHT22;2496;52.468;13.342;2022-09-02T15:01:59;20.80;85.80
4962;DHT22;2496;52.468;13.342;2022-09-02T15:04:27;20.80;85.90
4962;DHT22;2496;52.468;13.342;2022-09-02T15:06:54;20.80;84.60
4962;DHT22;2496;52.468;13.342;2022-09-02T15:09:21;20.80;84.00
4962;DHT22;2496;52.468;13.342;2022-09-02T15:11:50;20.80;84.20
4962;DHT22;2496;52.468;13.342;2022-09-02T15:14:19;20.90;84.70
4962;DHT22;2496;52.468;13.342;2022-09-02T15:16:46;21.00;83.40
4962;DHT22;2496;52.468;13.342;2022-09-02T15:19:13;21.10;83.60
4962;DHT22;2496;52.468;13.342;2022-09-02T15:21:41;21.10;83.00
4962;DHT22;2496;52.468;13.342;2022-09-02T15:24:08;21.10;83.90
4962;DHT22;2496;52.468;13.342;2022-09-02T15:26:35;21.00;84.20
4962;DHT22;2496;52.468;13.342;2022-09-02T15:29:02;21.00;83.70
4962;DHT22;2496;52.468;13.342;2022-09-02T15:31:29;20.90;84.10
4962;DHT22;2496;52.468;13.342;2022-09-02T15:33:56;20.90;84.60
4962;DHT22;2496;52.468;13.342;2022-09-02T15:36:24;21.00;85.00
4962;DHT22;2496;52.468;13.342;2022-09-02T15:38:53;20.90;85.40
4962;DHT22;2496;52.468;13.342;2022-09-02T15:41:22;20.90;84.90
4962;DHT22;2496;52.468;13.342;2022-09-02T15:43:50;20.80;84.80
4962;DHT22;2496;52.468;13.342;2022-09-02T15:46:24;20.80;84.30
4962;DHT22;2496;52.468;13.342;2022-09-02T15:48:51;20.70;84.10
4962;DHT22;2496;52.468;13.342;2022-09-02T15:51:20;20.70;83.80
4962;DHT22;2496;52.468;13.342;2022-09-02T15:54:04;20.60;83.70
4962;DHT22;2496;52.468;13.342;2022-09-02T15:56:33;20.50;84.00
4962;DHT22;2496;52.468;13.342;2022-09-02T15:59:01;20.50;84.20
4962;DHT22;2496;52.468;13.342;2022-09-02T16:01:30;20.40;84.20
4962;DHT22;2496;52.468;13.342;2022-09-02T16:03:58;20.40;83.60
4962;DHT22;2496;52.468;13.342;2022-09-02T16:06:26;20.50;83.30
4962;DHT22;2496;52.468;13.342;2022-09-02T16:08:53;20.50;83.20
4962;DHT22;2496;52.468;13.342;2022-09-02T16:11:22;20.50;83.20
4962;DHT22;2496;52.468;13.342;2022-09-02T16:13:50;20.60;83.30
4962;DHT22;2496;52.468;13.342;2022-09-02T16:16:17;20.60;83.30
4962;DHT22;2496;52.468;13.342;2022-09-02T16:18:48;20.60;83.10
4962;DHT22;2496;52.468;13.342;2022-09-02T16:21:15;20.60;83.50
4962;DHT22;2496;52.468;13.342;2022-09-02T16:23:42;20.60;84.20
4962;DHT22;2496;52.468;13.342;2022-09-02T16:26:12;20.50;83.40
4962;DHT22;2496;52.468;13.342;2022-09-02T16:28:43;20.50;84.00
4962;DHT22;2496;52.468;13.342;2022-09-02T16:31:12;20.40;83.90
4962;DHT22;2496;52.468;13.342;2022-09-02T16:33:42;20.30;83.60
4962;DHT22;2496;52.468;13.342;2022-09-02T16:36:09;20.20;83.70
4962;DHT22;2496;52.468;13.342;2022-09-02T16:38:37;20.20;83.70
4962;DHT22;2496;52.468;13.342;2022-09-02T16:41:04;20.10;84.50